createdAt,value
2019-01-05T00:00:45.934Z,1017.41
2019-01-05T00:01:45.365Z,1017.42
2019-01-05T00:02:45.370Z,1017.44
2019-01-05T00:03:45.330Z,1017.46
2019-01-05T00:04:45.253Z,1017.43
2019-01-05T00:05:45.940Z,1017.44
2019-01-05T00:06:45.198Z,1017.47
2019-01-05T00:07:45.492Z,1017.42
2019-01-05T00:08:45.220Z,1017.43
2019-01-05T00:09:45.087Z,1017.44
2019-01-05T00:10:45.938Z,1017.36
2019-01-05T00:11:45.062Z,1017.36
2019-01-05T00:12:54.452Z,1017.38
2019-01-05T00:13:45.462Z,1017.38
2019-01-05T00:14:44.919Z,1017.37
2019-01-05T00:15:45.012Z,1017.35
2019-01-05T00:16:44.853Z,1017.29
2019-01-05T00:17:44.820Z,1017.30
2019-01-05T00:18:44.811Z,1017.21
2019-01-05T00:19:44.750Z,1017.23
2019-01-05T00:20:44.767Z,1017.20
2019-01-05T00:21:45.498Z,1017.18
2019-01-05T00:22:44.705Z,1017.16
2019-01-05T00:23:44.618Z,1017.16
2019-01-05T00:24:44.585Z,1017.08
2019-01-05T00:25:44.549Z,1017.08
2019-01-05T00:26:45.460Z,1017.08
2019-01-05T00:27:44.547Z,1017.09
2019-01-05T00:28:44.451Z,1017.08
2019-01-05T00:29:44.419Z,1016.99
2019-01-05T00:30:44.964Z,1017.05
2019-01-05T00:31:44.348Z,1017.04
2019-01-05T00:32:44.371Z,1017.01
2019-01-05T00:33:44.962Z,1017.00
2019-01-05T00:34:44.316Z,1016.95
2019-01-05T00:35:44.961Z,1016.97
2019-01-05T00:36:44.964Z,1016.94
2019-01-05T00:37:44.517Z,1016.92
2019-01-05T00:38:44.965Z,1016.94
2019-01-05T00:39:44.081Z,1016.94
2019-01-05T00:40:44.092Z,1016.94
2019-01-05T00:41:44.016Z,1016.92
2019-01-05T00:42:43.984Z,1016.93
2019-01-05T00:43:43.989Z,1016.88
2019-01-05T00:44:43.922Z,1016.89
2019-01-05T00:45:44.026Z,1016.88
2019-01-05T00:46:43.851Z,1016.87
2019-01-05T00:47:43.816Z,1016.80
2019-01-05T00:48:44.467Z,1016.77
2019-01-05T00:49:43.805Z,1016.80
2019-01-05T00:50:43.770Z,1016.78
2019-01-05T00:51:44.468Z,1016.75
2019-01-05T00:52:43.702Z,1016.73
2019-01-05T00:53:43.623Z,1016.72
2019-01-05T00:54:43.586Z,1016.71
2019-01-05T00:55:43.553Z,1016.62
2019-01-05T00:56:43.518Z,1016.58
2019-01-05T00:57:43.534Z,1016.53
2019-01-05T00:58:45.374Z,1016.49
2019-01-05T00:59:43.418Z,1016.45
2019-01-05T01:00:43.386Z,1016.48
2019-01-05T01:01:43.358Z,1016.46
2019-01-05T01:02:43.366Z,1016.42
2019-01-05T01:03:43.972Z,1016.40
2019-01-05T01:04:43.254Z,1016.43
2019-01-05T01:05:43.226Z,1016.35
2019-01-05T01:06:43.199Z,1016.41
2019-01-05T01:07:43.193Z,1016.32
2019-01-05T01:08:43.121Z,1016.28
2019-01-05T01:09:43.083Z,1016.31
2019-01-05T01:10:43.101Z,1016.26
2019-01-05T01:11:43.017Z,1016.28
2019-01-05T01:12:42.986Z,1016.20
2019-01-05T01:13:42.951Z,1016.24
2019-01-05T01:14:42.922Z,1016.23
2019-01-05T01:15:42.935Z,1016.19
2019-01-05T01:16:43.466Z,1016.20
2019-01-05T01:17:42.825Z,1016.18
2019-01-05T01:18:42.794Z,1016.16
2019-01-05T01:19:42.756Z,1016.14
2019-01-05T01:20:43.584Z,1016.11
2019-01-05T01:21:42.685Z,1016.09
2019-01-05T01:22:42.651Z,1016.06
2019-01-05T01:23:42.671Z,1016.07
2019-01-05T01:24:42.602Z,1016.04
2019-01-05T01:25:42.555Z,1016.01
2019-01-05T01:26:42.566Z,1016.00
2019-01-05T01:27:43.466Z,1015.99
2019-01-05T01:28:43.057Z,1015.96
2019-01-05T01:29:42.969Z,1015.98
2019-01-05T01:30:43.014Z,1015.93
2019-01-05T01:31:42.521Z,1015.93
2019-01-05T01:32:42.967Z,1015.90
2019-01-05T01:33:42.288Z,1015.87
2019-01-05T01:34:42.257Z,1015.90
2019-01-05T01:35:42.239Z,1015.89
2019-01-05T01:36:42.521Z,1015.84
2019-01-05T01:37:42.158Z,1015.81
2019-01-05T01:38:42.522Z,1015.79
2019-01-05T01:39:42.087Z,1015.79
2019-01-05T01:40:42.059Z,1015.78
2019-01-05T01:41:42.019Z,1015.72
2019-01-05T01:42:42.968Z,1015.68
2019-01-05T01:43:42.466Z,1015.66
2019-01-05T01:44:42.031Z,1015.62
2019-01-05T01:45:41.895Z,1015.67
2019-01-05T01:46:41.861Z,1015.69
2019-01-05T01:47:41.881Z,1015.70
2019-01-05T01:48:42.469Z,1015.66
2019-01-05T01:49:41.760Z,1015.66
2019-01-05T01:50:42.470Z,1015.65
2019-01-05T01:51:41.691Z,1015.64
2019-01-05T01:52:41.718Z,1015.57
2019-01-05T01:53:41.626Z,1015.54
2019-01-05T01:54:41.601Z,1015.56
2019-01-05T01:55:41.582Z,1015.58
2019-01-05T01:56:42.469Z,1015.52
2019-01-05T01:57:41.552Z,1015.48
2019-01-05T01:58:41.462Z,1015.48
2019-01-05T01:59:41.431Z,1015.48
2019-01-05T02:00:41.398Z,1015.42
2019-01-05T02:01:41.373Z,1015.39
2019-01-05T02:02:41.529Z,1015.37
2019-01-05T02:03:41.296Z,1015.36
2019-01-05T02:04:41.298Z,1015.38
2019-01-05T02:05:41.884Z,1015.39
2019-01-05T02:06:41.199Z,1015.38
2019-01-05T02:07:41.206Z,1015.38
2019-01-05T02:08:41.135Z,1015.36
2019-01-05T02:09:41.100Z,1015.43
2019-01-05T02:10:42.885Z,1015.40
2019-01-05T02:11:41.522Z,1015.34
2019-01-05T02:12:41.971Z,1015.30
2019-01-05T02:13:40.967Z,1015.31
2019-01-05T02:14:40.986Z,1015.25
2019-01-05T02:15:40.909Z,1015.25
2019-01-05T02:16:40.865Z,1015.21
2019-01-05T02:17:41.474Z,1015.18
2019-01-05T02:18:41.475Z,1015.20
2019-01-05T02:19:40.813Z,1015.21
2019-01-05T02:20:40.736Z,1015.11
2019-01-05T02:21:40.704Z,1015.12
2019-01-05T02:22:40.669Z,1015.07
2019-01-05T02:23:40.661Z,1015.09
2019-01-05T02:24:41.024Z,1015.05
2019-01-05T02:25:40.612Z,1015.03
2019-01-05T02:26:40.537Z,1014.96
2019-01-05T02:27:40.553Z,1014.99
2019-01-05T02:28:40.469Z,1014.99
2019-01-05T02:29:40.973Z,1014.94
2019-01-05T02:30:40.529Z,1014.98
2019-01-05T02:31:40.551Z,1014.95
2019-01-05T02:32:40.980Z,1014.93
2019-01-05T02:33:40.304Z,1014.92
2019-01-05T02:34:40.276Z,1014.91
2019-01-05T02:35:40.247Z,1014.90
2019-01-05T02:36:40.243Z,1014.86
2019-01-05T02:37:40.533Z,1014.84
2019-01-05T02:38:40.975Z,1014.76
2019-01-05T02:39:40.975Z,1014.79
2019-01-05T02:40:41.003Z,1014.74
2019-01-05T02:41:40.977Z,1014.77
2019-01-05T02:42:40.059Z,1014.80
2019-01-05T02:43:39.985Z,1014.81
2019-01-05T02:44:39.950Z,1014.79
2019-01-05T02:45:39.909Z,1014.75
2019-01-05T02:46:39.886Z,1014.81
2019-01-05T02:47:39.884Z,1014.75
2019-01-05T02:48:39.814Z,1014.70
2019-01-05T02:49:39.792Z,1014.74
2019-01-05T02:50:39.790Z,1014.71
2019-01-05T02:51:39.717Z,1014.70
2019-01-05T02:52:39.679Z,1014.56
2019-01-05T02:53:39.689Z,1014.51
2019-01-05T02:54:39.613Z,1014.46
2019-01-05T02:55:39.630Z,1014.42
2019-01-05T02:56:39.549Z,1014.39
2019-01-05T02:57:39.514Z,1014.36
2019-01-05T02:58:40.481Z,1014.39
2019-01-05T02:59:39.449Z,1014.36
2019-01-05T03:00:39.460Z,1014.38
2019-01-05T03:01:39.383Z,1014.34
2019-01-05T03:02:39.395Z,1014.30
2019-01-05T03:03:39.316Z,1014.26
2019-01-05T03:04:39.283Z,1014.29
2019-01-05T03:05:39.538Z,1014.28
2019-01-05T03:06:39.984Z,1014.29
2019-01-05T03:07:39.981Z,1014.32
2019-01-05T03:08:39.180Z,1014.32
2019-01-05T03:09:39.126Z,1014.26
2019-01-05T03:10:40.039Z,1014.21
2019-01-05T03:11:39.055Z,1014.21
2019-01-05T03:12:39.018Z,1014.23
2019-01-05T03:13:38.989Z,1014.25
2019-01-05T03:14:38.959Z,1014.28
2019-01-05T03:15:38.927Z,1014.29
2019-01-05T03:16:38.935Z,1014.26
2019-01-05T03:17:38.892Z,1014.26
2019-01-05T03:18:38.833Z,1014.24
2019-01-05T03:19:39.481Z,1014.20
2019-01-05T03:20:38.759Z,1014.21
2019-01-05T03:21:38.724Z,1014.26
2019-01-05T03:22:39.394Z,1014.26
2019-01-05T03:23:39.478Z,1014.26
2019-01-05T03:24:39.485Z,1014.12
2019-01-05T03:25:39.486Z,1014.15
2019-01-05T03:26:38.643Z,1014.13
2019-01-05T03:27:38.574Z,1014.17
2019-01-05T03:28:38.555Z,1014.11
2019-01-05T03:29:38.984Z,1014.06
2019-01-05T03:30:38.464Z,1014.17
2019-01-05T03:31:38.982Z,1014.09
2019-01-05T03:32:38.398Z,1014.12
2019-01-05T03:33:40.394Z,1014.10
2019-01-05T03:34:39.023Z,1014.04
2019-01-05T03:35:38.266Z,1014.01
2019-01-05T03:36:39.000Z,1014.06
2019-01-05T03:37:38.204Z,1014.05
2019-01-05T03:38:38.535Z,1013.98
2019-01-05T03:39:38.172Z,1014.01
2019-01-05T03:40:38.533Z,1014.00
2019-01-05T03:41:39.035Z,1014.06
2019-01-05T03:42:38.985Z,1014.02
2019-01-05T03:43:38.002Z,1014.00
2019-01-05T03:44:38.485Z,1013.97
2019-01-05T03:45:38.029Z,1013.92
2019-01-05T03:46:37.906Z,1013.95
2019-01-05T03:47:37.878Z,1013.89
2019-01-05T03:48:37.839Z,1013.89
2019-01-05T03:49:37.810Z,1013.91
2019-01-05T03:50:38.028Z,1013.93
2019-01-05T03:51:37.787Z,1013.91
2019-01-05T03:52:37.707Z,1013.97
2019-01-05T03:53:37.677Z,1013.90
2019-01-05T03:54:37.643Z,1013.94
2019-01-05T03:55:38.489Z,1013.91
2019-01-05T03:56:37.637Z,1013.91
2019-01-05T03:57:37.553Z,1013.87
2019-01-05T03:58:38.487Z,1013.87
2019-01-05T03:59:37.480Z,1013.88
2019-01-05T04:00:37.986Z,1013.89
2019-01-05T04:01:37.457Z,1013.91
2019-01-05T04:02:38.082Z,1013.87
2019-01-05T04:03:37.408Z,1013.95
2019-01-05T04:04:37.983Z,1013.89
2019-01-05T04:05:37.987Z,1013.91
2019-01-05T04:06:37.986Z,1013.88
2019-01-05T04:07:37.544Z,1013.92
2019-01-05T04:08:37.984Z,1013.82
2019-01-05T04:09:37.983Z,1013.92
2019-01-05T04:10:37.120Z,1013.85
2019-01-05T04:11:37.537Z,1013.82
2019-01-05T04:12:37.061Z,1013.79
2019-01-05T04:13:37.076Z,1013.77
2019-01-05T04:14:36.989Z,1013.76
2019-01-05T04:15:36.957Z,1013.77
2019-01-05T04:16:37.483Z,1013.79
2019-01-05T04:17:37.492Z,1013.80
2019-01-05T04:18:36.906Z,1013.77
2019-01-05T04:19:37.490Z,1013.80
2019-01-05T04:20:36.794Z,1013.81
2019-01-05T04:21:37.488Z,1013.78
2019-01-05T04:22:36.769Z,1013.86
2019-01-05T04:23:37.119Z,1013.82
2019-01-05T04:24:37.503Z,1013.82
2019-01-05T04:25:37.486Z,1013.78
2019-01-05T04:26:37.493Z,1013.85
2019-01-05T04:27:37.486Z,1013.81
2019-01-05T04:28:36.573Z,1013.83
2019-01-05T04:29:36.552Z,1013.84
2019-01-05T04:30:36.987Z,1013.87
2019-01-05T04:31:36.458Z,1013.83
2019-01-05T04:32:36.403Z,1013.90
2019-01-05T04:33:36.377Z,1013.92
2019-01-05T04:34:36.390Z,1013.90
2019-01-05T04:35:36.309Z,1013.87
2019-01-05T04:36:36.992Z,1013.89
2019-01-05T04:37:36.539Z,1013.91
2019-01-05T04:38:36.990Z,1013.94
2019-01-05T04:39:36.988Z,1013.92
2019-01-05T04:40:36.144Z,1013.88
2019-01-05T04:41:36.546Z,1014.01
2019-01-05T04:42:36.081Z,1014.01
2019-01-05T04:43:36.548Z,1013.92
2019-01-05T04:44:36.990Z,1013.87
2019-01-05T04:45:36.513Z,1013.87
2019-01-05T04:46:35.955Z,1013.85
2019-01-05T04:47:36.490Z,1013.86
2019-01-05T04:48:37.544Z,1013.86
2019-01-05T04:49:35.907Z,1013.86
2019-01-05T04:50:36.493Z,1013.93
2019-01-05T04:51:36.055Z,1013.89
2019-01-05T04:52:36.492Z,1013.89
2019-01-05T04:53:36.493Z,1013.87
2019-01-05T04:54:35.688Z,1013.93
2019-01-05T04:55:35.661Z,1013.80
2019-01-05T04:56:36.046Z,1013.75
2019-01-05T04:57:36.494Z,1013.78
2019-01-05T04:58:35.558Z,1013.80
2019-01-05T04:59:35.563Z,1013.83
2019-01-05T05:00:35.609Z,1013.85
2019-01-05T05:01:35.993Z,1013.91
2019-01-05T05:02:35.538Z,1013.88
2019-01-05T05:03:36.025Z,1013.90
2019-01-05T05:04:35.992Z,1013.82
2019-01-05T05:05:35.992Z,1013.81
2019-01-05T05:06:35.544Z,1013.86
2019-01-05T05:07:35.316Z,1013.94
2019-01-05T05:08:36.004Z,1013.90
2019-01-05T05:09:35.213Z,1013.82
2019-01-05T05:10:35.539Z,1013.85
2019-01-05T05:11:35.135Z,1013.81
2019-01-05T05:12:35.152Z,1013.81
2019-01-05T05:13:35.073Z,1013.85
2019-01-05T05:14:35.041Z,1013.80
2019-01-05T05:15:35.547Z,1013.78
2019-01-05T05:16:34.973Z,1013.79
2019-01-05T05:17:34.948Z,1013.76
2019-01-05T05:18:34.916Z,1013.74
2019-01-05T05:19:34.915Z,1013.76
2019-01-05T05:20:35.496Z,1013.75
2019-01-05T05:21:35.494Z,1013.78
2019-01-05T05:22:35.853Z,1013.79
2019-01-05T05:23:34.746Z,1013.78
2019-01-05T05:24:34.724Z,1013.72
2019-01-05T05:25:34.688Z,1013.80
2019-01-05T05:26:34.671Z,1013.77
2019-01-05T05:27:34.661Z,1013.84
2019-01-05T05:28:35.057Z,1013.75
2019-01-05T05:29:35.070Z,1013.84
2019-01-05T05:30:35.548Z,1013.81
2019-01-05T05:31:35.003Z,1013.81
2019-01-05T05:32:34.477Z,1013.83
2019-01-05T05:33:34.422Z,1013.76
2019-01-05T05:34:34.439Z,1013.73
2019-01-05T05:35:34.577Z,1013.84
2019-01-05T05:36:35.005Z,1013.82
2019-01-05T05:37:34.544Z,1013.80
2019-01-05T05:38:34.265Z,1013.81
2019-01-05T05:39:34.231Z,1013.82
2019-01-05T05:40:34.551Z,1013.86
2019-01-05T05:41:34.167Z,1013.80
2019-01-05T05:42:34.143Z,1013.84
2019-01-05T05:43:34.099Z,1013.82
2019-01-05T05:44:35.052Z,1013.93
2019-01-05T05:45:34.543Z,1013.84
2019-01-05T05:46:34.035Z,1013.79
2019-01-05T05:47:34.016Z,1013.88
2019-01-05T05:48:33.938Z,1013.81
2019-01-05T05:49:33.930Z,1013.84
2019-01-05T05:50:33.885Z,1013.92
2019-01-05T05:51:33.842Z,1013.87
2019-01-05T05:52:33.854Z,1013.76
2019-01-05T05:53:34.415Z,1013.82
2019-01-05T05:54:33.748Z,1013.79
2019-01-05T05:55:34.503Z,1013.81
2019-01-05T05:56:34.050Z,1013.84
2019-01-05T05:57:34.498Z,1013.77
2019-01-05T05:58:33.663Z,1013.80
2019-01-05T05:59:33.586Z,1013.85
2019-01-05T06:00:34.499Z,1013.83
2019-01-05T06:01:33.517Z,1013.85
2019-01-05T06:02:33.999Z,1013.80
2019-01-05T06:03:33.566Z,1013.84
2019-01-05T06:04:33.999Z,1013.85
2019-01-05T06:05:33.999Z,1013.86
2019-01-05T06:06:33.359Z,1013.82
2019-01-05T06:07:33.322Z,1013.86
2019-01-05T06:08:33.588Z,1013.89
2019-01-05T06:09:33.263Z,1013.84
2019-01-05T06:10:33.261Z,1013.85
2019-01-05T06:11:33.195Z,1013.92
2019-01-05T06:12:33.163Z,1013.99
2019-01-05T06:13:33.169Z,1013.90
2019-01-05T06:14:34.000Z,1013.89
2019-01-05T06:15:33.061Z,1013.87
2019-01-05T06:16:33.034Z,1013.95
2019-01-05T06:17:33.042Z,1013.90
2019-01-05T06:18:32.968Z,1013.91
2019-01-05T06:19:32.972Z,1013.94
2019-01-05T06:20:32.902Z,1013.83
2019-01-05T06:21:32.913Z,1013.88
2019-01-05T06:23:45.952Z,1013.90
2019-01-05T06:24:46.469Z,1013.91
2019-01-05T06:25:45.862Z,1013.85
2019-01-05T06:26:45.810Z,1013.93
2019-01-05T06:27:45.776Z,1013.93
2019-01-05T06:28:45.748Z,1013.93
2019-01-05T06:29:45.754Z,1013.94
2019-01-05T06:30:45.690Z,1013.93
2019-01-05T06:31:46.564Z,1013.89
2019-01-05T06:32:45.618Z,1013.94
2019-01-05T06:33:45.691Z,1013.93
2019-01-05T06:34:45.611Z,1014.01
2019-01-05T06:35:45.517Z,1014.01
2019-01-05T06:36:45.486Z,1014.01
2019-01-05T06:37:46.058Z,1014.07
2019-01-05T06:38:45.616Z,1013.97
2019-01-05T06:39:45.388Z,1013.95
2019-01-05T06:40:45.356Z,1013.99
2019-01-05T06:41:46.057Z,1014.02
2019-01-05T06:42:45.291Z,1014.06
2019-01-05T06:43:46.486Z,1014.02
2019-01-05T06:44:45.227Z,1014.03
2019-01-05T06:45:46.052Z,1013.98
2019-01-05T06:46:46.052Z,1014.14
2019-01-05T06:47:46.103Z,1014.10
2019-01-05T06:48:45.620Z,1014.14
2019-01-05T06:49:45.066Z,1014.13
2019-01-05T06:50:45.045Z,1014.17
2019-01-05T06:51:45.554Z,1014.13
2019-01-05T06:52:44.969Z,1014.16
2019-01-05T06:53:45.100Z,1014.13
2019-01-05T06:54:44.899Z,1014.11
2019-01-05T06:55:44.942Z,1014.18
2019-01-05T06:56:44.837Z,1014.20
2019-01-05T06:57:45.113Z,1014.18
2019-01-05T06:58:44.772Z,1014.19
2019-01-05T06:59:44.738Z,1014.13
2019-01-05T07:00:44.734Z,1014.15
2019-01-05T07:01:44.687Z,1014.14
2019-01-05T07:02:44.683Z,1014.19
2019-01-05T07:03:44.609Z,1014.34
2019-01-05T07:04:45.637Z,1014.29
2019-01-05T07:05:44.560Z,1014.33
2019-01-05T07:06:44.555Z,1014.30
2019-01-05T07:07:45.068Z,1014.28
2019-01-05T07:08:44.453Z,1014.31
2019-01-05T07:09:44.473Z,1014.32
2019-01-05T07:10:44.383Z,1014.31
2019-01-05T07:11:44.399Z,1014.29
2019-01-05T07:12:44.320Z,1014.37
2019-01-05T07:13:45.076Z,1014.39
2019-01-05T07:14:44.254Z,1014.47
2019-01-05T07:15:44.224Z,1014.48
2019-01-05T07:16:44.235Z,1014.54
2019-01-05T07:17:44.156Z,1014.60
2019-01-05T07:18:44.177Z,1014.57
2019-01-05T07:19:44.098Z,1014.58
2019-01-05T07:20:44.068Z,1014.62
2019-01-05T07:21:44.044Z,1014.69
2019-01-05T07:22:43.992Z,1014.72
2019-01-05T07:23:44.111Z,1014.78
2019-01-05T07:24:43.992Z,1014.74
2019-01-05T07:25:43.898Z,1014.70
2019-01-05T07:26:43.879Z,1014.75
2019-01-05T07:27:43.835Z,1014.74
2019-01-05T07:28:43.853Z,1014.73
2019-01-05T07:29:43.774Z,1014.79
2019-01-05T07:30:43.742Z,1014.79
2019-01-05T07:31:43.708Z,1014.80
2019-01-05T07:32:43.678Z,1014.85
2019-01-05T07:33:43.691Z,1014.90
2019-01-05T07:34:43.613Z,1014.91
2019-01-05T07:35:43.579Z,1015.02
2019-01-05T07:36:43.543Z,1014.96
2019-01-05T07:37:43.512Z,1014.97
2019-01-05T07:38:43.523Z,1015.00
2019-01-05T07:39:43.447Z,1015.06
2019-01-05T07:40:43.424Z,1015.09
2019-01-05T07:41:43.435Z,1015.09
2019-01-05T07:42:43.391Z,1015.12
2019-01-05T07:43:43.323Z,1015.10
2019-01-05T07:44:43.291Z,1015.09
2019-01-05T07:45:43.259Z,1015.08
2019-01-05T07:46:43.267Z,1015.07
2019-01-05T07:47:43.193Z,1015.19
2019-01-05T07:48:43.201Z,1015.22
2019-01-05T07:49:43.128Z,1015.26
2019-01-05T07:50:43.239Z,1015.18
2019-01-05T07:51:43.564Z,1015.15
2019-01-05T07:52:43.076Z,1015.24
2019-01-05T07:53:43.000Z,1015.24
2019-01-05T07:54:42.965Z,1015.19
2019-01-05T07:55:42.982Z,1015.23
2019-01-05T07:56:42.947Z,1015.22
2019-01-05T07:57:42.877Z,1015.24
2019-01-05T07:58:42.835Z,1015.32
2019-01-05T07:59:42.814Z,1015.23
2019-01-05T08:00:42.775Z,1015.27
2019-01-05T08:01:42.783Z,1015.23
2019-01-05T08:02:42.720Z,1015.24
2019-01-05T08:03:42.679Z,1015.33
2019-01-05T08:04:42.646Z,1015.36
2019-01-05T08:05:42.621Z,1015.36
2019-01-05T08:06:42.622Z,1015.36
2019-01-05T08:07:42.545Z,1015.39
2019-01-05T08:08:42.577Z,1015.42
2019-01-05T08:09:42.483Z,1015.45
2019-01-05T08:10:42.452Z,1015.43
2019-01-05T08:11:42.428Z,1015.47
2019-01-05T08:12:42.432Z,1015.43
2019-01-05T08:13:42.359Z,1015.42
2019-01-05T08:14:42.326Z,1015.44
2019-01-05T08:15:42.313Z,1015.40
2019-01-05T08:16:42.323Z,1015.41
2019-01-05T08:17:42.233Z,1015.39
2019-01-05T08:18:42.195Z,1015.45
2019-01-05T08:19:42.161Z,1015.46
2019-01-05T08:20:42.189Z,1015.51
2019-01-05T08:21:42.108Z,1015.39
2019-01-05T08:22:42.066Z,1015.45
2019-01-05T08:23:42.056Z,1015.44
2019-01-05T08:24:42.028Z,1015.44
2019-01-05T08:25:42.030Z,1015.40
2019-01-05T08:26:41.943Z,1015.40
2019-01-05T08:27:41.907Z,1015.53
2019-01-05T08:28:41.878Z,1015.44
2019-01-05T08:29:41.847Z,1015.53
2019-01-05T08:30:41.857Z,1015.47
2019-01-05T08:31:41.782Z,1015.41
2019-01-05T08:32:41.750Z,1015.46
2019-01-05T08:33:41.730Z,1015.38
2019-01-05T08:34:41.688Z,1015.51
2019-01-05T08:35:41.699Z,1015.53
2019-01-05T08:36:41.646Z,1015.53
2019-01-05T08:37:41.610Z,1015.53
2019-01-05T08:38:41.561Z,1015.55
2019-01-05T08:39:41.527Z,1015.56
2019-01-05T08:40:41.561Z,1015.55
2019-01-05T08:41:41.472Z,1015.62
2019-01-05T08:42:41.443Z,1015.61
2019-01-05T08:43:41.402Z,1015.55
2019-01-05T08:44:41.369Z,1015.60
2019-01-05T08:45:41.400Z,1015.68
2019-01-05T08:46:41.308Z,1015.59
2019-01-05T08:47:41.272Z,1015.60
2019-01-05T08:48:41.246Z,1015.61
2019-01-05T08:49:41.221Z,1015.65
2019-01-05T08:50:41.213Z,1015.56
2019-01-05T08:51:41.146Z,1015.62
2019-01-05T08:52:41.170Z,1015.66
2019-01-05T08:53:41.084Z,1015.72
2019-01-05T08:54:41.056Z,1015.73
2019-01-05T08:55:41.018Z,1015.72
2019-01-05T08:56:41.035Z,1015.76
2019-01-05T08:57:41.021Z,1015.69
2019-01-05T08:58:40.931Z,1015.76
2019-01-05T08:59:41.571Z,1015.77
2019-01-05T09:00:40.864Z,1015.75
2019-01-05T09:01:40.836Z,1015.76
2019-01-05T09:02:40.891Z,1015.79
2019-01-05T09:03:40.820Z,1015.73
2019-01-05T09:04:40.732Z,1015.80
2019-01-05T09:05:40.704Z,1015.78
2019-01-05T09:06:40.672Z,1015.79
2019-01-05T09:07:40.718Z,1015.82
2019-01-05T09:08:40.653Z,1015.81
2019-01-05T09:09:40.581Z,1015.75
2019-01-05T09:10:40.545Z,1015.79
2019-01-05T09:11:40.521Z,1015.81
2019-01-05T09:12:40.492Z,1015.84
2019-01-05T09:13:40.497Z,1015.87
2019-01-05T09:14:40.416Z,1015.86
2019-01-05T09:15:40.387Z,1015.85
2019-01-05T09:16:40.403Z,1015.88
2019-01-05T09:17:40.442Z,1015.87
2019-01-05T09:18:40.293Z,1015.86
2019-01-05T09:19:40.620Z,1016.02
2019-01-05T09:20:40.238Z,1015.94
2019-01-05T09:21:40.203Z,1015.96
2019-01-05T09:22:40.167Z,1016.03
2019-01-05T09:23:40.174Z,1016.09
2019-01-05T09:24:40.151Z,1016.03
2019-01-05T09:25:40.073Z,1016.14
2019-01-05T09:26:40.086Z,1016.09
2019-01-05T09:27:40.012Z,1016.11
2019-01-05T09:28:39.982Z,1016.10
2019-01-05T09:29:39.954Z,1016.18
2019-01-05T09:30:40.006Z,1016.14
2019-01-05T09:31:39.891Z,1016.19
2019-01-05T09:32:39.914Z,1016.13
2019-01-05T09:33:39.872Z,1016.13
2019-01-05T09:34:39.795Z,1016.13
2019-01-05T09:35:39.785Z,1016.13
2019-01-05T09:36:39.741Z,1016.24
2019-01-05T09:37:39.701Z,1016.16
2019-01-05T09:38:39.715Z,1016.14
2019-01-05T09:39:39.714Z,1016.15
2019-01-05T09:40:39.615Z,1016.13
2019-01-05T09:41:39.579Z,1016.17
2019-01-05T09:42:39.573Z,1016.09
2019-01-05T09:43:39.523Z,1016.08
2019-01-05T09:44:39.529Z,1016.10
2019-01-05T09:45:40.078Z,1016.09
2019-01-05T09:46:39.423Z,1016.12
2019-01-05T09:47:40.124Z,1016.02
2019-01-05T09:48:39.409Z,1016.06
2019-01-05T09:49:39.339Z,1016.08
2019-01-05T09:50:39.303Z,1016.09
2019-01-05T09:51:39.270Z,1016.05
2019-01-05T09:52:39.293Z,1016.05
2019-01-05T09:53:39.209Z,1016.05
2019-01-05T09:54:39.643Z,1016.01
2019-01-05T09:55:39.153Z,1016.05
2019-01-05T09:56:39.120Z,1015.96
2019-01-05T09:57:39.236Z,1015.95
2019-01-05T09:58:39.056Z,1015.96
2019-01-05T09:59:39.060Z,1015.95
2019-01-05T10:00:38.991Z,1016.02
2019-01-05T10:01:40.994Z,1015.97
2019-01-05T10:02:38.942Z,1016.08
2019-01-05T10:03:38.905Z,1016.07
2019-01-05T10:04:38.917Z,1016.15
2019-01-05T10:05:38.843Z,1016.18
2019-01-05T10:06:39.583Z,1016.20
2019-01-05T10:07:38.781Z,1016.18
2019-01-05T10:08:38.794Z,1016.16
2019-01-05T10:09:38.731Z,1016.20
2019-01-05T10:10:38.698Z,1016.19
2019-01-05T10:11:38.654Z,1016.25
2019-01-05T10:12:38.665Z,1016.22
2019-01-05T10:13:38.599Z,1016.23
2019-01-05T10:14:38.568Z,1016.19
2019-01-05T10:15:38.535Z,1016.20
2019-01-05T10:16:38.507Z,1016.27
2019-01-05T10:17:38.531Z,1016.30
2019-01-05T10:18:38.440Z,1016.25
2019-01-05T10:19:39.083Z,1016.33
2019-01-05T10:20:38.379Z,1016.19
2019-01-05T10:21:38.348Z,1016.22
2019-01-05T10:22:38.396Z,1016.23
2019-01-05T10:23:38.291Z,1016.14
2019-01-05T10:24:38.262Z,1016.28
2019-01-05T10:25:41.094Z,1016.15
2019-01-05T10:26:38.198Z,1016.16
2019-01-05T10:27:38.208Z,1016.18
2019-01-05T10:28:38.134Z,1016.18
2019-01-05T10:29:38.104Z,1016.24
2019-01-05T10:30:38.076Z,1016.17
2019-01-05T10:31:38.043Z,1016.18
2019-01-05T10:32:38.058Z,1016.18
2019-01-05T10:33:37.986Z,1016.18
2019-01-05T10:34:38.007Z,1016.14
2019-01-05T10:35:37.926Z,1016.18
2019-01-05T10:36:37.941Z,1016.16
2019-01-05T10:37:37.860Z,1016.14
2019-01-05T10:38:37.824Z,1016.11
2019-01-05T10:39:37.811Z,1016.07
2019-01-05T10:40:37.773Z,1016.14
2019-01-05T10:41:37.783Z,1016.08
2019-01-05T10:42:37.743Z,1016.11
2019-01-05T10:43:37.773Z,1016.09
2019-01-05T10:44:38.583Z,1016.13
2019-01-05T10:45:37.625Z,1016.07
2019-01-05T10:46:37.588Z,1016.11
2019-01-05T10:47:37.553Z,1016.15
2019-01-05T10:48:37.567Z,1016.11
2019-01-05T10:49:37.494Z,1016.12
2019-01-05T10:50:37.460Z,1016.15
2019-01-05T10:51:37.432Z,1016.16
2019-01-05T10:52:38.095Z,1016.13
2019-01-05T10:53:37.414Z,1016.09
2019-01-05T10:54:37.340Z,1016.07
2019-01-05T10:55:37.312Z,1016.09
2019-01-05T10:56:37.289Z,1016.08
2019-01-05T10:57:37.825Z,1016.09
2019-01-05T10:58:37.290Z,1016.12
2019-01-05T10:59:37.183Z,1016.04
2019-01-05T11:00:37.198Z,1016.04
2019-01-05T11:01:37.130Z,1016.02
2019-01-05T11:02:38.089Z,1016.06
2019-01-05T11:03:37.065Z,1016.03
2019-01-05T11:04:37.145Z,1016.10
2019-01-05T11:05:37.004Z,1016.14
2019-01-05T11:06:37.603Z,1016.09
2019-01-05T11:07:36.939Z,1016.11
2019-01-05T11:08:36.909Z,1016.20
2019-01-05T11:09:36.927Z,1016.22
2019-01-05T11:10:37.502Z,1016.24
2019-01-05T11:11:37.150Z,1016.27
2019-01-05T11:12:36.791Z,1016.25
2019-01-05T11:13:36.762Z,1016.25
2019-01-05T11:14:36.733Z,1016.19
2019-01-05T11:15:36.705Z,1016.21
2019-01-05T11:16:36.709Z,1016.17
2019-01-05T11:17:37.151Z,1016.17
2019-01-05T11:18:36.605Z,1016.19
2019-01-05T11:19:36.579Z,1016.17
2019-01-05T11:20:36.546Z,1016.29
2019-01-05T11:21:36.519Z,1016.19
2019-01-05T11:22:36.648Z,1016.23
2019-01-05T11:23:36.458Z,1016.20
2019-01-05T11:24:36.471Z,1016.15
2019-01-05T11:25:36.398Z,1016.16
2019-01-05T11:26:36.359Z,1016.22
2019-01-05T11:27:36.378Z,1016.23
2019-01-05T11:28:36.302Z,1016.22
2019-01-05T11:29:36.271Z,1016.22
2019-01-05T11:30:36.242Z,1016.31
2019-01-05T11:31:36.214Z,1016.34
2019-01-05T11:32:36.218Z,1016.42
2019-01-05T11:33:36.153Z,1016.40
2019-01-05T11:34:36.133Z,1016.37
2019-01-05T11:35:36.101Z,1016.35
2019-01-05T11:36:36.059Z,1016.32
2019-01-05T11:37:36.089Z,1016.35
2019-01-05T11:38:35.996Z,1016.36
2019-01-05T11:39:35.966Z,1016.30
2019-01-05T11:40:35.936Z,1016.32
2019-01-05T11:41:35.946Z,1016.41
2019-01-05T11:42:35.915Z,1016.36
2019-01-05T11:43:35.885Z,1016.42
2019-01-05T11:44:35.866Z,1016.52
2019-01-05T11:45:35.786Z,1016.46
2019-01-05T11:46:35.794Z,1016.53
2019-01-05T11:47:35.739Z,1016.44
2019-01-05T11:48:35.696Z,1016.46
2019-01-05T11:49:36.164Z,1016.53
2019-01-05T11:50:35.641Z,1016.52
2019-01-05T11:51:35.625Z,1016.45
2019-01-05T11:52:35.581Z,1016.41
2019-01-05T11:53:35.541Z,1016.43
2019-01-05T11:54:35.552Z,1016.50
2019-01-05T11:55:35.496Z,1016.41
2019-01-05T11:56:35.460Z,1016.45
2019-01-05T11:57:35.421Z,1016.50
2019-01-05T11:58:35.431Z,1016.60
2019-01-05T11:59:35.357Z,1016.56
2019-01-05T12:00:35.334Z,1016.49
2019-01-05T12:01:35.659Z,1016.49
2019-01-05T12:02:35.319Z,1016.47
2019-01-05T12:03:35.281Z,1016.51
2019-01-05T12:04:35.201Z,1016.56
2019-01-05T12:05:35.176Z,1016.57
2019-01-05T12:06:35.170Z,1016.52